Terminal Aerodrome Forecast
Issued by NWS San Angelo, TX

Home | Current Version | Previous Version | Text Only | Print | Product List | Glossary On
Versions: 1 2 3 4 5 6 7 8 9 10 11 12 13 14 15 16 17 18 19 20 21 22 23 24 25 26
000
FTUS44 KSJT 282300
TAFSJT
TAF
KSJT 282320Z 2900/2924 18012G18KT P6SM VCTS FEW070CB
     FM290100 19012G18KT P6SM -TSRA BKN060CB
     FM290300 19007KT P6SM -SHRA BKN050 OVC120
     FM290500 17007KT P6SM BKN120
     FM291100 17007KT P6SM BKN025
     FM291800 18012G18KT P6SM BKN050
     FM292000 17010KT P6SM FEW250=

USA.gov is the U.S. government's official web portal to all federal, state and local government web resources and services.